createdAt,value
2022-10-25T00:03:31.591Z,14.90
2022-10-25T00:08:36.388Z,13.70
2022-10-25T00:18:43.328Z,12.98
2022-10-25T00:23:48.399Z,15.95
2022-10-25T00:28:54.415Z,13.15
2022-10-25T00:33:57.891Z,17.15
2022-10-25T00:39:02.933Z,21.70
2022-10-25T00:44:47.826Z,24.52
2022-10-25T00:49:56.846Z,14.23
2022-10-25T00:55:03.687Z,20.33
2022-10-25T01:00:08.713Z,18.42
2022-10-25T01:05:12.510Z,17.10
2022-10-25T01:10:17.804Z,15.10
2022-10-25T01:15:24.416Z,16.05
2022-10-25T01:20:58.230Z,14.07
2022-10-25T01:26:41.369Z,11.00
2022-10-25T01:31:50.364Z,15.25
2022-10-25T01:37:01.421Z,12.63
2022-10-25T01:42:08.757Z,19.02
2022-10-25T01:47:18.774Z,15.68
2022-10-25T01:52:24.026Z,15.25
2022-10-25T01:57:49.672Z,17.02
2022-10-25T02:03:13.854Z,15.73
2022-10-25T02:08:24.311Z,12.73
2022-10-25T02:13:33.355Z,13.43
2022-10-25T02:19:02.081Z,15.50
2022-10-25T02:24:10.796Z,13.40
2022-10-25T02:29:16.399Z,11.38
2022-10-25T02:34:21.497Z,11.15
2022-10-25T02:39:30.500Z,12.52
2022-10-25T02:44:35.178Z,12.00
2022-10-25T02:49:40.278Z,13.52
2022-10-25T02:54:43.803Z,20.50
2022-10-25T02:59:47.184Z,13.68
2022-10-25T03:04:51.926Z,17.30
2022-10-25T03:14:58.811Z,11.05
2022-10-25T03:20:03.547Z,15.37
2022-10-25T03:30:17.204Z,14.93
2022-10-25T03:35:22.173Z,13.38
2022-10-25T03:40:25.695Z,15.43
2022-10-25T03:45:29.165Z,16.38
2022-10-25T03:50:33.974Z,15.02
2022-10-25T04:00:40.859Z,16.65
2022-10-25T04:05:45.875Z,14.98
2022-10-25T04:10:49.263Z,11.35
2022-10-25T04:15:52.757Z,13.48
2022-10-25T04:20:59.705Z,11.52
2022-10-25T04:26:03.088Z,20.15
2022-10-25T04:31:06.711Z,13.73
2022-10-25T04:36:11.509Z,14.30
2022-10-25T04:41:15.216Z,16.48
2022-10-25T04:46:19.069Z,16.23
2022-10-25T04:51:23.935Z,12.63
2022-10-25T05:01:30.600Z,16.95
2022-10-25T05:06:35.486Z,14.63
2022-10-25T05:16:42.266Z,18.17
2022-10-25T05:21:47.949Z,18.85
2022-10-25T05:26:51.292Z,11.80
2022-10-25T05:31:54.699Z,13.13
2022-10-25T05:36:59.732Z,11.52
2022-10-25T05:42:06.457Z,12.27
2022-10-25T05:47:10.192Z,13.00
2022-10-25T05:52:15.662Z,13.27
2022-10-25T06:02:22.340Z,9.05
2022-10-25T06:07:27.566Z,10.57
2022-10-25T06:12:30.915Z,7.97
2022-10-25T06:17:34.353Z,8.45
2022-10-25T06:22:39.228Z,9.15
2022-10-25T06:27:44.221Z,11.27
2022-10-25T06:32:47.909Z,14.43
2022-10-25T06:37:52.861Z,9.20
2022-10-25T06:42:57.055Z,12.75
2022-10-25T06:48:00.601Z,9.07
2022-10-25T06:53:05.522Z,9.57
2022-10-25T06:58:08.968Z,11.75
2022-10-25T07:03:12.347Z,11.88
2022-10-25T07:13:20.256Z,13.52
2022-10-25T07:18:24.027Z,14.07
2022-10-25T07:23:29.313Z,10.90
2022-10-25T07:28:33.038Z,12.48
2022-10-25T07:33:36.717Z,10.82
2022-10-25T07:38:42.144Z,10.57
2022-10-25T07:43:45.599Z,10.13
2022-10-25T07:48:50.010Z,7.47
2022-10-25T07:53:55.769Z,8.07
2022-10-25T07:58:59.585Z,8.80
2022-10-25T08:04:03.089Z,6.25
2022-10-25T08:09:14.539Z,9.93
2022-10-25T08:14:18.616Z,8.20
2022-10-25T08:19:22.391Z,7.60
2022-10-25T08:24:27.227Z,7.70
2022-10-25T08:29:30.955Z,7.00
2022-10-25T08:34:34.852Z,7.30
2022-10-25T08:39:40.375Z,6.78
2022-10-25T08:44:48.199Z,6.80
2022-10-25T08:49:56.985Z,7.50
2022-10-25T08:55:05.823Z,6.93
2022-10-25T09:00:17.852Z,6.57
2022-10-25T09:05:35.961Z,7.10
2022-10-25T09:10:51.556Z,9.88
2022-10-25T09:16:06.147Z,6.55
2022-10-25T09:21:22.179Z,9.80
2022-10-25T09:26:43.839Z,8.43
2022-10-25T09:31:52.883Z,8.02
2022-10-25T09:37:03.466Z,8.07
2022-10-25T09:42:19.669Z,9.98
2022-10-25T09:47:32.128Z,6.65
2022-10-25T09:52:42.347Z,8.20
2022-10-25T09:57:47.963Z,4.95
2022-10-25T10:02:51.810Z,6.07
2022-10-25T10:07:56.477Z,3.55
2022-10-25T10:13:06.455Z,6.30
2022-10-25T10:18:27.497Z,6.07
2022-10-25T10:23:33.972Z,5.20
2022-10-25T10:28:39.526Z,3.67
2022-10-25T10:33:49.816Z,6.07
2022-10-25T10:38:53.944Z,7.22
2022-10-25T10:44:14.119Z,3.80
2022-10-25T10:49:18.751Z,9.00
2022-10-25T10:54:26.672Z,4.20
2022-10-25T10:59:40.620Z,3.22
2022-10-25T11:04:50.898Z,4.22
2022-10-25T11:09:54.712Z,5.25
2022-10-25T11:14:59.743Z,3.25
2022-10-25T11:20:20.719Z,5.63
2022-10-25T11:25:35.426Z,6.68
2022-10-25T11:30:46.020Z,4.10
2022-10-25T11:36:30.372Z,4.05
2022-10-25T11:41:45.228Z,7.32
2022-10-25T11:46:58.432Z,3.25
2022-10-25T11:52:20.049Z,6.03
2022-10-25T11:57:36.177Z,5.05
2022-10-25T12:02:57.034Z,3.85
2022-10-25T12:08:15.853Z,4.90
2022-10-25T12:13:23.381Z,4.10
2022-10-25T12:18:36.903Z,5.10
2022-10-25T12:23:45.131Z,4.93
2022-10-25T12:28:51.238Z,4.22
2022-10-25T12:34:01.022Z,4.53
2022-10-25T12:39:11.863Z,4.25
2022-10-25T12:44:33.198Z,6.75
2022-10-25T12:50:02.245Z,9.43
2022-10-25T12:55:37.371Z,6.28
2022-10-25T13:00:56.486Z,6.97
2022-10-25T13:06:26.907Z,8.27
2022-10-25T13:11:36.097Z,9.43
2022-10-25T13:16:39.880Z,8.73
2022-10-25T13:22:34.132Z,8.45
2022-10-25T13:28:01.959Z,8.35
2022-10-25T13:33:28.627Z,6.53
2022-10-25T13:38:39.550Z,10.07
2022-10-25T13:44:01.133Z,8.13
2022-10-25T13:49:22.193Z,13.18
2022-10-25T13:54:37.182Z,7.30
2022-10-25T14:00:02.485Z,9.88
2022-10-25T14:05:11.781Z,8.25
2022-10-25T14:10:28.639Z,6.88
2022-10-25T14:15:41.426Z,8.18
2022-10-25T14:20:47.611Z,7.72
2022-10-25T14:25:57.190Z,12.90
2022-10-25T14:31:02.529Z,13.38
2022-10-25T14:36:11.119Z,9.50
2022-10-25T14:41:16.253Z,13.20
2022-10-25T14:46:21.791Z,16.83
2022-10-25T14:51:30.016Z,12.93
2022-10-25T14:56:38.217Z,18.95
2022-10-25T15:01:42.972Z,12.60
2022-10-25T15:06:50.291Z,10.65
2022-10-25T15:12:18.432Z,13.43
2022-10-25T15:17:30.353Z,19.33
2022-10-25T15:22:42.657Z,15.35
2022-10-25T15:27:47.528Z,15.65
2022-10-25T15:37:54.819Z,16.77
2022-10-25T15:42:59.808Z,16.05
2022-10-25T15:48:05.712Z,18.25
2022-10-25T15:53:12.791Z,18.85
2022-10-25T15:58:18.514Z,22.60
2022-10-25T16:03:24.182Z,20.80
2022-10-25T16:08:28.421Z,22.08
2022-10-25T16:13:36.690Z,21.48
2022-10-25T16:18:40.507Z,21.45
2022-10-25T16:23:44.000Z,20.60
2022-10-25T16:28:49.673Z,24.33
2022-10-25T16:33:53.108Z,21.05
2022-10-25T16:38:57.536Z,20.48
2022-10-25T16:44:02.243Z,31.17
2022-10-25T16:49:06.287Z,22.10
2022-10-25T16:54:11.561Z,17.37
2022-10-25T16:59:16.836Z,21.10
2022-10-25T17:04:23.476Z,18.10
2022-10-25T17:09:27.371Z,19.10
2022-10-25T17:14:32.435Z,15.50
2022-10-25T17:19:36.167Z,17.85
2022-10-25T17:24:39.544Z,16.98
2022-10-25T17:29:44.818Z,17.40
2022-10-25T17:34:48.551Z,14.57
2022-10-25T17:39:52.378Z,18.50
2022-10-25T17:44:57.298Z,14.38
2022-10-25T17:55:07.156Z,17.58
2022-10-25T18:00:14.553Z,20.63
2022-10-25T18:05:21.117Z,21.60
2022-10-25T18:10:25.449Z,26.77
2022-10-25T18:15:30.847Z,19.97
2022-10-25T18:20:34.668Z,21.42
2022-10-25T18:25:38.449Z,18.85
2022-10-25T18:30:45.971Z,23.58
2022-10-25T18:35:49.418Z,17.73
2022-10-25T18:40:53.525Z,19.13
2022-10-25T18:46:01.984Z,19.37
2022-10-25T18:51:06.520Z,16.70
2022-10-25T18:56:11.702Z,17.13
2022-10-25T19:01:18.749Z,16.35
2022-10-25T19:06:22.735Z,19.90
2022-10-25T19:11:26.903Z,17.37
2022-10-25T19:16:32.146Z,17.50
2022-10-25T19:21:36.380Z,19.08
2022-10-25T19:26:40.155Z,17.45
2022-10-25T19:31:45.352Z,20.23
2022-10-25T19:36:50.514Z,16.77
2022-10-25T19:41:54.363Z,15.88
2022-10-25T19:46:59.376Z,19.25
2022-10-25T19:52:02.957Z,17.77
2022-10-25T19:57:07.244Z,17.48
2022-10-25T20:02:12.590Z,19.55
2022-10-25T20:07:16.333Z,18.58
2022-10-25T20:12:20.288Z,15.40
2022-10-25T20:17:25.551Z,18.83
2022-10-25T20:22:28.977Z,20.27
2022-10-25T20:27:33.353Z,15.82
2022-10-25T20:32:40.731Z,15.48
2022-10-25T20:37:44.645Z,19.58
2022-10-25T20:42:48.177Z,18.03
2022-10-25T20:47:55.468Z,18.30
2022-10-25T20:53:15.672Z,19.33
2022-10-25T20:58:21.358Z,16.65
2022-10-25T21:03:27.270Z,26.27
2022-10-25T21:08:31.373Z,16.55
2022-10-25T21:13:37.455Z,19.48
2022-10-25T21:18:43.307Z,22.47
2022-10-25T21:23:46.770Z,20.33
2022-10-25T21:28:50.859Z,21.95
2022-10-25T21:33:59.342Z,19.87
2022-10-25T21:39:03.289Z,21.27
2022-10-25T21:49:12.035Z,22.13
2022-10-25T21:54:15.477Z,17.98
2022-10-25T21:59:18.839Z,16.77
2022-10-25T22:04:24.193Z,21.80
2022-10-25T22:09:27.879Z,19.58
2022-10-25T22:14:31.615Z,29.73
2022-10-25T22:19:37.039Z,18.58
2022-10-25T22:24:40.377Z,17.75
2022-10-25T22:29:44.095Z,22.98
2022-10-25T22:34:49.046Z,16.48
2022-10-25T22:39:52.708Z,25.80
2022-10-25T22:44:56.195Z,18.95
2022-10-25T22:50:01.327Z,17.90
2022-10-25T22:55:06.903Z,21.02
2022-10-25T23:00:11.853Z,21.73
2022-10-25T23:05:16.878Z,22.05
2022-10-25T23:10:20.501Z,18.40
2022-10-25T23:15:24.254Z,19.50
2022-10-25T23:20:29.631Z,20.20
2022-10-25T23:25:34.772Z,22.52
2022-10-25T23:30:38.666Z,18.50
2022-10-25T23:35:43.482Z,19.70
2022-10-25T23:45:51.364Z,22.33
2022-10-25T23:56:07.096Z,20.77
